sensor_id;sensor_type;location;lat;lon;timestamp;P1;durP1;ratioP1;P2;durP2;ratioP2
55672;SDS011;41554;45.366;20.400;2022-11-12T00:01:46;67.93;;;44.50;;
55672;SDS011;41554;45.366;20.400;2022-11-12T00:04:12;65.32;;;43.25;;
55672;SDS011;41554;45.366;20.400;2022-11-12T00:06:38;59.15;;;37.92;;
55672;SDS011;41554;45.366;20.400;2022-11-12T00:09:04;61.00;;;41.47;;
55672;SDS011;41554;45.366;20.400;2022-11-12T00:11:30;62.10;;;38.00;;
55672;SDS011;41554;45.366;20.400;2022-11-12T00:13:56;75.18;;;44.90;;
55672;SDS011;41554;45.366;20.400;2022-11-12T00:16:22;66.03;;;44.88;;
55672;SDS011;41554;45.366;20.400;2022-11-12T00:18:48;63.03;;;40.83;;
55672;SDS011;41554;45.366;20.400;2022-11-12T00:21:15;58.67;;;38.97;;
55672;SDS011;41554;45.366;20.400;2022-11-12T00:23:41;71.50;;;43.33;;
55672;SDS011;41554;45.366;20.400;2022-11-12T00:26:07;52.22;;;37.80;;
55672;SDS011;41554;45.366;20.400;2022-11-12T00:28:33;57.13;;;35.95;;
55672;SDS011;41554;45.366;20.400;2022-11-12T00:30:59;68.10;;;40.20;;
55672;SDS011;41554;45.366;20.400;2022-11-12T00:33:31;50.85;;;36.72;;
55672;SDS011;41554;45.366;20.400;2022-11-12T00:35:58;54.10;;;35.38;;
55672;SDS011;41554;45.366;20.400;2022-11-12T00:38:24;52.97;;;34.33;;
55672;SDS011;41554;45.366;20.400;2022-11-12T00:40:50;61.35;;;37.83;;
55672;SDS011;41554;45.366;20.400;2022-11-12T00:43:16;56.85;;;37.97;;
55672;SDS011;41554;45.366;20.400;2022-11-12T00:45:42;45.15;;;32.50;;
55672;SDS011;41554;45.366;20.400;2022-11-12T00:48:08;58.63;;;36.95;;
55672;SDS011;41554;45.366;20.400;2022-11-12T00:50:34;42.65;;;35.47;;
55672;SDS011;41554;45.366;20.400;2022-11-12T00:53:00;52.70;;;35.42;;
55672;SDS011;41554;45.366;20.400;2022-11-12T00:55:26;52.38;;;31.05;;
55672;SDS011;41554;45.366;20.400;2022-11-12T00:57:52;47.65;;;31.58;;
55672;SDS011;41554;45.366;20.400;2022-11-12T01:00:19;45.42;;;31.83;;
55672;SDS011;41554;45.366;20.400;2022-11-12T01:02:45;56.45;;;34.38;;
55672;SDS011;41554;45.366;20.400;2022-11-12T01:05:11;42.50;;;32.45;;
55672;SDS011;41554;45.366;20.400;2022-11-12T01:07:37;43.38;;;30.10;;
55672;SDS011;41554;45.366;20.400;2022-11-12T01:10:03;53.28;;;36.08;;
55672;SDS011;41554;45.366;20.400;2022-11-12T01:12:30;59.90;;;34.05;;
55672;SDS011;41554;45.366;20.400;2022-11-12T01:14:56;53.63;;;30.50;;
55672;SDS011;41554;45.366;20.400;2022-11-12T01:17:22;44.88;;;30.98;;
55672;SDS011;41554;45.366;20.400;2022-11-12T01:19:48;40.65;;;28.90;;
55672;SDS011;41554;45.366;20.400;2022-11-12T01:22:14;47.58;;;33.33;;
55672;SDS011;41554;45.366;20.400;2022-11-12T01:24:40;43.65;;;34.33;;
55672;SDS011;41554;45.366;20.400;2022-11-12T01:27:06;43.78;;;30.38;;
55672;SDS011;41554;45.366;20.400;2022-11-12T01:29:31;42.67;;;32.72;;
55672;SDS011;41554;45.366;20.400;2022-11-12T01:31:57;46.97;;;34.88;;
55672;SDS011;41554;45.366;20.400;2022-11-12T01:34:23;53.97;;;33.20;;
55672;SDS011;41554;45.366;20.400;2022-11-12T01:36:48;42.45;;;32.95;;
55672;SDS011;41554;45.366;20.400;2022-11-12T01:39:14;47.83;;;31.00;;
55672;SDS011;41554;45.366;20.400;2022-11-12T01:41:40;48.20;;;31.50;;
55672;SDS011;41554;45.366;20.400;2022-11-12T01:46:59;56.05;;;34.28;;
55672;SDS011;41554;45.366;20.400;2022-11-12T01:52:29;50.38;;;33.78;;
55672;SDS011;41554;45.366;20.400;2022-11-12T01:54:56;39.53;;;28.35;;
55672;SDS011;41554;45.366;20.400;2022-11-12T01:59:55;42.70;;;28.75;;
55672;SDS011;41554;45.366;20.400;2022-11-12T02:02:25;45.28;;;29.10;;
55672;SDS011;41554;45.366;20.400;2022-11-12T02:04:51;48.90;;;30.30;;
55672;SDS011;41554;45.366;20.400;2022-11-12T02:07:20;48.58;;;30.55;;
55672;SDS011;41554;45.366;20.400;2022-11-12T02:09:48;49.53;;;33.67;;
55672;SDS011;41554;45.366;20.400;2022-11-12T02:12:14;41.28;;;27.60;;
55672;SDS011;41554;45.366;20.400;2022-11-12T02:14:59;42.78;;;29.60;;
55672;SDS011;41554;45.366;20.400;2022-11-12T02:17:24;47.38;;;31.05;;
55672;SDS011;41554;45.366;20.400;2022-11-12T02:19:51;44.67;;;28.60;;
55672;SDS011;41554;45.366;20.400;2022-11-12T02:22:17;45.42;;;29.98;;
55672;SDS011;41554;45.366;20.400;2022-11-12T02:24:42;41.15;;;32.45;;
55672;SDS011;41554;45.366;20.400;2022-11-12T02:27:08;40.55;;;29.30;;
55672;SDS011;41554;45.366;20.400;2022-11-12T02:29:36;49.10;;;28.77;;
55672;SDS011;41554;45.366;20.400;2022-11-12T02:32:10;36.22;;;29.27;;
55672;SDS011;41554;45.366;20.400;2022-11-12T02:34:38;43.75;;;30.73;;
55672;SDS011;41554;45.366;20.400;2022-11-12T02:37:05;49.33;;;29.00;;
55672;SDS011;41554;45.366;20.400;2022-11-12T02:39:31;46.40;;;32.28;;
55672;SDS011;41554;45.366;20.400;2022-11-12T02:41:57;43.03;;;31.88;;
55672;SDS011;41554;45.366;20.400;2022-11-12T02:44:23;47.80;;;33.08;;
55672;SDS011;41554;45.366;20.400;2022-11-12T02:46:49;43.67;;;29.40;;
55672;SDS011;41554;45.366;20.400;2022-11-12T02:49:14;45.75;;;29.17;;
55672;SDS011;41554;45.366;20.400;2022-11-12T02:51:40;37.08;;;27.83;;
55672;SDS011;41554;45.366;20.400;2022-11-12T02:54:06;44.72;;;29.75;;
55672;SDS011;41554;45.366;20.400;2022-11-12T02:56:32;36.72;;;25.90;;
55672;SDS011;41554;45.366;20.400;2022-11-12T02:58:57;42.42;;;27.75;;
55672;SDS011;41554;45.366;20.400;2022-11-12T03:01:23;40.47;;;29.05;;
55672;SDS011;41554;45.366;20.400;2022-11-12T03:03:49;45.85;;;28.55;;
55672;SDS011;41554;45.366;20.400;2022-11-12T03:06:15;34.40;;;27.15;;
55672;SDS011;41554;45.366;20.400;2022-11-12T03:08:42;35.25;;;26.80;;
55672;SDS011;41554;45.366;20.400;2022-11-12T03:11:09;47.88;;;28.17;;
55672;SDS011;41554;45.366;20.400;2022-11-12T03:13:35;37.28;;;28.05;;
55672;SDS011;41554;45.366;20.400;2022-11-12T03:16:01;37.65;;;27.05;;
55672;SDS011;41554;45.366;20.400;2022-11-12T03:18:27;32.15;;;25.35;;
55672;SDS011;41554;45.366;20.400;2022-11-12T03:20:54;35.33;;;25.02;;
55672;SDS011;41554;45.366;20.400;2022-11-12T03:23:20;43.45;;;27.15;;
55672;SDS011;41554;45.366;20.400;2022-11-12T03:25:46;43.40;;;28.67;;
55672;SDS011;41554;45.366;20.400;2022-11-12T03:28:13;32.97;;;25.05;;
55672;SDS011;41554;45.366;20.400;2022-11-12T03:30:40;38.05;;;27.02;;
55672;SDS011;41554;45.366;20.400;2022-11-12T03:33:06;36.30;;;25.08;;
55672;SDS011;41554;45.366;20.400;2022-11-12T03:35:33;38.83;;;25.45;;
55672;SDS011;41554;45.366;20.400;2022-11-12T03:37:59;32.15;;;24.17;;
55672;SDS011;41554;45.366;20.400;2022-11-12T03:40:25;31.67;;;24.27;;
55672;SDS011;41554;45.366;20.400;2022-11-12T03:42:52;37.72;;;26.25;;
55672;SDS011;41554;45.366;20.400;2022-11-12T03:45:19;32.55;;;26.55;;
55672;SDS011;41554;45.366;20.400;2022-11-12T03:47:49;33.88;;;25.45;;
55672;SDS011;41554;45.366;20.400;2022-11-12T03:50:16;43.65;;;25.98;;
55672;SDS011;41554;45.366;20.400;2022-11-12T03:52:43;37.42;;;25.23;;
55672;SDS011;41554;45.366;20.400;2022-11-12T03:55:09;32.35;;;24.48;;
55672;SDS011;41554;45.366;20.400;2022-11-12T03:57:35;42.50;;;29.38;;
55672;SDS011;41554;45.366;20.400;2022-11-12T04:00:03;33.60;;;24.20;;
55672;SDS011;41554;45.366;20.400;2022-11-12T04:02:29;32.55;;;23.33;;
55672;SDS011;41554;45.366;20.400;2022-11-12T04:04:55;36.15;;;25.65;;
55672;SDS011;41554;45.366;20.400;2022-11-12T04:07:40;35.50;;;24.50;;
55672;SDS011;41554;45.366;20.400;2022-11-12T04:10:25;35.00;;;23.23;;
55672;SDS011;41554;45.366;20.400;2022-11-12T04:12:53;40.08;;;25.42;;
55672;SDS011;41554;45.366;20.400;2022-11-12T04:15:37;34.78;;;25.40;;
55672;SDS011;41554;45.366;20.400;2022-11-12T04:18:03;39.47;;;25.48;;
55672;SDS011;41554;45.366;20.400;2022-11-12T04:20:48;35.70;;;23.75;;
55672;SDS011;41554;45.366;20.400;2022-11-12T04:23:33;33.05;;;22.95;;
55672;SDS011;41554;45.366;20.400;2022-11-12T04:25:59;36.10;;;25.58;;
55672;SDS011;41554;45.366;20.400;2022-11-12T04:28:43;32.75;;;25.05;;
55672;SDS011;41554;45.366;20.400;2022-11-12T04:31:29;37.05;;;24.85;;
55672;SDS011;41554;45.366;20.400;2022-11-12T04:33:55;33.38;;;23.55;;
55672;SDS011;41554;45.366;20.400;2022-11-12T04:36:41;33.97;;;23.95;;
55672;SDS011;41554;45.366;20.400;2022-11-12T04:39:07;36.67;;;22.02;;
55672;SDS011;41554;45.366;20.400;2022-11-12T04:41:33;30.15;;;23.17;;
55672;SDS011;41554;45.366;20.400;2022-11-12T04:44:18;29.48;;;23.55;;
55672;SDS011;41554;45.366;20.400;2022-11-12T04:47:02;34.13;;;24.77;;
55672;SDS011;41554;45.366;20.400;2022-11-12T04:49:28;32.35;;;25.80;;
55672;SDS011;41554;45.366;20.400;2022-11-12T04:51:55;37.05;;;23.65;;
55672;SDS011;41554;45.366;20.400;2022-11-12T04:54:29;47.72;;;28.40;;
55672;SDS011;41554;45.366;20.400;2022-11-12T04:56:55;41.15;;;23.90;;
55672;SDS011;41554;45.366;20.400;2022-11-12T04:59:21;33.50;;;25.77;;
55672;SDS011;41554;45.366;20.400;2022-11-12T05:01:48;35.70;;;25.38;;
55672;SDS011;41554;45.366;20.400;2022-11-12T05:04:14;30.92;;;23.63;;
55672;SDS011;41554;45.366;20.400;2022-11-12T05:06:40;39.50;;;26.00;;
55672;SDS011;41554;45.366;20.400;2022-11-12T05:09:15;36.45;;;23.63;;
55672;SDS011;41554;45.366;20.400;2022-11-12T05:11:41;37.13;;;24.05;;
55672;SDS011;41554;45.366;20.400;2022-11-12T05:14:07;39.55;;;27.10;;
55672;SDS011;41554;45.366;20.400;2022-11-12T05:16:33;31.88;;;24.10;;
55672;SDS011;41554;45.366;20.400;2022-11-12T05:18:59;25.58;;;21.55;;
55672;SDS011;41554;45.366;20.400;2022-11-12T05:21:26;34.05;;;25.92;;
55672;SDS011;41554;45.366;20.400;2022-11-12T05:24:10;31.58;;;23.23;;
55672;SDS011;41554;45.366;20.400;2022-11-12T05:26:36;32.13;;;25.33;;
55672;SDS011;41554;45.366;20.400;2022-11-12T05:29:02;34.28;;;24.63;;
55672;SDS011;41554;45.366;20.400;2022-11-12T05:31:28;40.92;;;25.30;;
55672;SDS011;41554;45.366;20.400;2022-11-12T05:33:54;46.90;;;24.92;;
55672;SDS011;41554;45.366;20.400;2022-11-12T05:36:20;30.77;;;23.15;;
55672;SDS011;41554;45.366;20.400;2022-11-12T05:38:47;37.75;;;24.33;;
55672;SDS011;41554;45.366;20.400;2022-11-12T05:41:13;33.80;;;25.25;;
55672;SDS011;41554;45.366;20.400;2022-11-12T05:43:39;37.80;;;25.25;;
55672;SDS011;41554;45.366;20.400;2022-11-12T05:46:05;35.83;;;26.35;;
55672;SDS011;41554;45.366;20.400;2022-11-12T05:48:31;35.00;;;26.83;;
55672;SDS011;41554;45.366;20.400;2022-11-12T05:50:57;36.03;;;27.15;;
55672;SDS011;41554;45.366;20.400;2022-11-12T05:53:23;35.92;;;25.25;;
55672;SDS011;41554;45.366;20.400;2022-11-12T05:55:49;36.33;;;25.95;;
55672;SDS011;41554;45.366;20.400;2022-11-12T05:58:15;32.97;;;25.92;;
55672;SDS011;41554;45.366;20.400;2022-11-12T06:00:41;32.47;;;25.45;;
55672;SDS011;41554;45.366;20.400;2022-11-12T06:03:08;37.55;;;24.80;;
55672;SDS011;41554;45.366;20.400;2022-11-12T06:05:34;36.47;;;25.88;;
55672;SDS011;41554;45.366;20.400;2022-11-12T06:08:01;29.42;;;23.33;;
55672;SDS011;41554;45.366;20.400;2022-11-12T06:10:28;43.88;;;24.15;;
55672;SDS011;41554;45.366;20.400;2022-11-12T06:12:54;40.35;;;27.40;;
55672;SDS011;41554;45.366;20.400;2022-11-12T06:15:20;52.35;;;26.65;;
55672;SDS011;41554;45.366;20.400;2022-11-12T06:17:48;39.15;;;32.28;;
55672;SDS011;41554;45.366;20.400;2022-11-12T06:20:15;58.20;;;40.00;;
55672;SDS011;41554;45.366;20.400;2022-11-12T06:22:41;49.35;;;36.47;;
55672;SDS011;41554;45.366;20.400;2022-11-12T06:25:07;38.90;;;28.00;;
55672;SDS011;41554;45.366;20.400;2022-11-12T06:27:33;38.50;;;26.88;;
55672;SDS011;41554;45.366;20.400;2022-11-12T06:29:59;39.80;;;25.45;;
55672;SDS011;41554;45.366;20.400;2022-11-12T06:32:25;40.65;;;29.30;;
55672;SDS011;41554;45.366;20.400;2022-11-12T06:34:51;37.72;;;28.40;;
55672;SDS011;41554;45.366;20.400;2022-11-12T06:37:18;38.88;;;26.38;;
55672;SDS011;41554;45.366;20.400;2022-11-12T06:39:45;27.85;;;21.88;;
55672;SDS011;41554;45.366;20.400;2022-11-12T06:42:11;35.40;;;24.15;;
55672;SDS011;41554;45.366;20.400;2022-11-12T06:44:37;31.73;;;23.52;;
55672;SDS011;41554;45.366;20.400;2022-11-12T06:47:03;40.22;;;24.77;;
55672;SDS011;41554;45.366;20.400;2022-11-12T06:49:30;40.20;;;26.95;;
55672;SDS011;41554;45.366;20.400;2022-11-12T06:51:56;56.63;;;26.67;;
55672;SDS011;41554;45.366;20.400;2022-11-12T06:54:22;36.80;;;27.83;;
55672;SDS011;41554;45.366;20.400;2022-11-12T06:56:48;42.50;;;26.98;;
55672;SDS011;41554;45.366;20.400;2022-11-12T06:59:14;35.58;;;28.20;;
55672;SDS011;41554;45.366;20.400;2022-11-12T07:01:40;32.22;;;24.42;;
55672;SDS011;41554;45.366;20.400;2022-11-12T07:04:06;45.35;;;27.90;;
55672;SDS011;41554;45.366;20.400;2022-11-12T07:06:32;40.90;;;25.00;;
55672;SDS011;41554;45.366;20.400;2022-11-12T07:08:59;37.42;;;27.33;;
55672;SDS011;41554;45.366;20.400;2022-11-12T07:11:25;35.53;;;25.27;;
55672;SDS011;41554;45.366;20.400;2022-11-12T07:13:51;39.15;;;28.25;;
55672;SDS011;41554;45.366;20.400;2022-11-12T07:16:17;34.83;;;25.92;;
55672;SDS011;41554;45.366;20.400;2022-11-12T07:18:43;43.75;;;27.73;;
55672;SDS011;41554;45.366;20.400;2022-11-12T07:21:10;34.03;;;27.40;;
55672;SDS011;41554;45.366;20.400;2022-11-12T07:23:37;30.13;;;24.45;;
55672;SDS011;41554;45.366;20.400;2022-11-12T07:26:05;37.97;;;23.88;;
55672;SDS011;41554;45.366;20.400;2022-11-12T07:28:31;36.30;;;25.85;;
55672;SDS011;41554;45.366;20.400;2022-11-12T07:30:59;30.13;;;22.48;;
55672;SDS011;41554;45.366;20.400;2022-11-12T07:33:26;36.55;;;24.95;;
55672;SDS011;41554;45.366;20.400;2022-11-12T07:35:58;39.60;;;24.75;;
55672;SDS011;41554;45.366;20.400;2022-11-12T07:38:24;32.00;;;22.50;;
55672;SDS011;41554;45.366;20.400;2022-11-12T07:40:51;33.63;;;25.00;;
55672;SDS011;41554;45.366;20.400;2022-11-12T07:43:17;38.65;;;25.48;;
55672;SDS011;41554;45.366;20.400;2022-11-12T07:45:43;30.73;;;24.60;;
55672;SDS011;41554;45.366;20.400;2022-11-12T07:48:09;41.20;;;23.75;;
55672;SDS011;41554;45.366;20.400;2022-11-12T07:50:35;39.72;;;20.50;;
55672;SDS011;41554;45.366;20.400;2022-11-12T07:53:01;27.20;;;20.67;;
55672;SDS011;41554;45.366;20.400;2022-11-12T07:55:27;31.92;;;24.48;;
55672;SDS011;41554;45.366;20.400;2022-11-12T07:57:53;37.10;;;21.90;;
55672;SDS011;41554;45.366;20.400;2022-11-12T08:00:23;32.17;;;23.17;;
55672;SDS011;41554;45.366;20.400;2022-11-12T08:02:49;30.40;;;20.42;;
55672;SDS011;41554;45.366;20.400;2022-11-12T08:05:15;31.33;;;23.60;;
55672;SDS011;41554;45.366;20.400;2022-11-12T08:07:41;30.38;;;24.13;;
55672;SDS011;41554;45.366;20.400;2022-11-12T08:10:07;28.85;;;22.67;;
55672;SDS011;41554;45.366;20.400;2022-11-12T08:12:34;31.48;;;23.52;;
55672;SDS011;41554;45.366;20.400;2022-11-12T08:15:00;27.83;;;22.05;;
55672;SDS011;41554;45.366;20.400;2022-11-12T08:17:26;27.48;;;20.92;;
55672;SDS011;41554;45.366;20.400;2022-11-12T08:19:52;27.52;;;22.50;;
55672;SDS011;41554;45.366;20.400;2022-11-12T08:22:19;31.25;;;22.67;;
55672;SDS011;41554;45.366;20.400;2022-11-12T08:24:45;25.17;;;20.20;;
55672;SDS011;41554;45.366;20.400;2022-11-12T08:27:11;40.50;;;23.35;;
55672;SDS011;41554;45.366;20.400;2022-11-12T08:29:37;38.45;;;22.55;;
55672;SDS011;41554;45.366;20.400;2022-11-12T08:32:03;26.65;;;19.42;;
55672;SDS011;41554;45.366;20.400;2022-11-12T08:34:29;35.55;;;22.52;;
55672;SDS011;41554;45.366;20.400;2022-11-12T08:36:56;34.28;;;23.40;;
55672;SDS011;41554;45.366;20.400;2022-11-12T08:39:22;31.60;;;21.80;;
55672;SDS011;41554;45.366;20.400;2022-11-12T08:41:48;34.03;;;24.40;;
55672;SDS011;41554;45.366;20.400;2022-11-12T08:44:14;28.77;;;20.88;;
55672;SDS011;41554;45.366;20.400;2022-11-12T08:46:40;39.60;;;27.90;;
55672;SDS011;41554;45.366;20.400;2022-11-12T08:49:06;23.70;;;19.52;;
55672;SDS011;41554;45.366;20.400;2022-11-12T08:51:32;26.80;;;17.10;;
55672;SDS011;41554;45.366;20.400;2022-11-12T08:53:58;30.33;;;19.88;;
55672;SDS011;41554;45.366;20.400;2022-11-12T08:56:24;26.27;;;20.67;;
55672;SDS011;41554;45.366;20.400;2022-11-12T08:58:50;29.80;;;19.05;;
55672;SDS011;41554;45.366;20.400;2022-11-12T09:01:16;26.38;;;17.75;;
55672;SDS011;41554;45.366;20.400;2022-11-12T09:03:42;24.27;;;15.82;;
55672;SDS011;41554;45.366;20.400;2022-11-12T09:06:08;21.33;;;17.85;;
55672;SDS011;41554;45.366;20.400;2022-11-12T09:08:35;27.65;;;17.88;;
55672;SDS011;41554;45.366;20.400;2022-11-12T09:11:01;25.00;;;16.45;;
55672;SDS011;41554;45.366;20.400;2022-11-12T09:13:27;23.60;;;16.88;;
55672;SDS011;41554;45.366;20.400;2022-11-12T09:15:58;22.63;;;17.63;;
55672;SDS011;41554;45.366;20.400;2022-11-12T09:18:24;24.88;;;15.68;;
55672;SDS011;41554;45.366;20.400;2022-11-12T09:20:50;22.27;;;16.65;;
55672;SDS011;41554;45.366;20.400;2022-11-12T09:23:16;29.38;;;16.70;;
55672;SDS011;41554;45.366;20.400;2022-11-12T09:25:42;25.70;;;16.45;;
55672;SDS011;41554;45.366;20.400;2022-11-12T09:28:12;21.80;;;17.73;;
55672;SDS011;41554;45.366;20.400;2022-11-12T09:30:41;27.25;;;17.83;;
55672;SDS011;41554;45.366;20.400;2022-11-12T09:33:07;25.42;;;18.05;;
55672;SDS011;41554;45.366;20.400;2022-11-12T09:35:33;28.08;;;17.27;;
55672;SDS011;41554;45.366;20.400;2022-11-12T09:37:59;24.98;;;16.10;;
55672;SDS011;41554;45.366;20.400;2022-11-12T09:40:30;27.67;;;19.58;;
55672;SDS011;41554;45.366;20.400;2022-11-12T09:42:57;29.80;;;18.00;;
55672;SDS011;41554;45.366;20.400;2022-11-12T09:45:25;30.80;;;20.60;;
55672;SDS011;41554;45.366;20.400;2022-11-12T09:47:54;26.73;;;19.17;;
55672;SDS011;41554;45.366;20.400;2022-11-12T09:53:00;21.80;;;16.83;;
55672;SDS011;41554;45.366;20.400;2022-11-12T09:55:29;24.13;;;17.63;;
55672;SDS011;41554;45.366;20.400;2022-11-12T09:57:56;27.45;;;19.33;;
55672;SDS011;41554;45.366;20.400;2022-11-12T10:00:22;29.33;;;19.92;;
55672;SDS011;41554;45.366;20.400;2022-11-12T10:02:53;24.33;;;19.05;;
55672;SDS011;41554;45.366;20.400;2022-11-12T10:23:33;27.83;;;18.23;;
55672;SDS011;41554;45.366;20.400;2022-11-12T10:26:04;30.58;;;19.05;;
55672;SDS011;41554;45.366;20.400;2022-11-12T10:31:14;23.35;;;19.20;;
55672;SDS011;41554;45.366;20.400;2022-11-12T10:33:40;49.65;;;25.95;;
55672;SDS011;41554;45.366;20.400;2022-11-12T10:36:18;30.92;;;21.35;;
55672;SDS011;41554;45.366;20.400;2022-11-12T10:38:46;32.80;;;20.25;;
55672;SDS011;41554;45.366;20.400;2022-11-12T10:41:17;26.42;;;19.58;;
55672;SDS011;41554;45.366;20.400;2022-11-12T10:46:20;30.65;;;20.00;;
55672;SDS011;41554;45.366;20.400;2022-11-12T10:48:51;33.92;;;19.63;;
55672;SDS011;41554;45.366;20.400;2022-11-12T10:51:21;30.25;;;16.85;;
55672;SDS011;41554;45.366;20.400;2022-11-12T10:53:48;35.58;;;19.55;;
55672;SDS011;41554;45.366;20.400;2022-11-12T10:56:25;30.52;;;19.58;;
55672;SDS011;41554;45.366;20.400;2022-11-12T10:59:06;27.88;;;18.35;;
55672;SDS011;41554;45.366;20.400;2022-11-12T11:01:33;27.05;;;20.52;;
55672;SDS011;41554;45.366;20.400;2022-11-12T11:04:00;29.17;;;18.40;;
55672;SDS011;41554;45.366;20.400;2022-11-12T11:06:26;22.90;;;16.15;;
55672;SDS011;41554;45.366;20.400;2022-11-12T11:08:53;34.70;;;20.45;;
55672;SDS011;41554;45.366;20.400;2022-11-12T11:11:29;24.20;;;16.42;;
55672;SDS011;41554;45.366;20.400;2022-11-12T11:13:56;24.38;;;17.85;;
55672;SDS011;41554;45.366;20.400;2022-11-12T11:16:27;20.63;;;15.60;;
55672;SDS011;41554;45.366;20.400;2022-11-12T11:18:54;51.22;;;26.73;;
55672;SDS011;41554;45.366;20.400;2022-11-12T11:29:34;17.00;;;13.55;;
55672;SDS011;41554;45.366;20.400;2022-11-12T11:34:51;27.05;;;16.17;;
55672;SDS011;41554;45.366;20.400;2022-11-12T11:37:29;28.88;;;16.92;;
55672;SDS011;41554;45.366;20.400;2022-11-12T11:45:14;22.75;;;12.98;;
55672;SDS011;41554;45.366;20.400;2022-11-12T11:47:46;22.92;;;13.73;;
55672;SDS011;41554;45.366;20.400;2022-11-12T11:53:20;24.73;;;13.70;;
55672;SDS011;41554;45.366;20.400;2022-11-12T12:06:08;21.85;;;13.48;;
55672;SDS011;41554;45.366;20.400;2022-11-12T12:11:06;19.75;;;15.85;;
55672;SDS011;41554;45.366;20.400;2022-11-12T12:16:21;17.13;;;10.88;;
55672;SDS011;41554;45.366;20.400;2022-11-12T12:18:59;19.05;;;12.10;;
55672;SDS011;41554;45.366;20.400;2022-11-12T12:21:28;19.88;;;11.38;;
55672;SDS011;41554;45.366;20.400;2022-11-12T12:26:41;19.73;;;12.18;;
55672;SDS011;41554;45.366;20.400;2022-11-12T12:29:14;20.27;;;12.30;;
55672;SDS011;41554;45.366;20.400;2022-11-12T12:31:43;17.52;;;13.48;;
55672;SDS011;41554;45.366;20.400;2022-11-12T12:36:38;21.30;;;15.45;;
55672;SDS011;41554;45.366;20.400;2022-11-12T12:39:13;26.75;;;14.98;;
55672;SDS011;41554;45.366;20.400;2022-11-12T12:41:44;24.40;;;15.98;;
55672;SDS011;41554;45.366;20.400;2022-11-12T12:44:11;32.90;;;16.10;;
55672;SDS011;41554;45.366;20.400;2022-11-12T12:46:39;25.17;;;14.77;;
55672;SDS011;41554;45.366;20.400;2022-11-12T12:49:06;26.23;;;17.98;;
55672;SDS011;41554;45.366;20.400;2022-11-12T12:51:35;36.58;;;14.98;;
55672;SDS011;41554;45.366;20.400;2022-11-12T12:54:01;17.92;;;11.55;;
55672;SDS011;41554;45.366;20.400;2022-11-12T12:58:57;19.17;;;13.48;;
55672;SDS011;41554;45.366;20.400;2022-11-12T13:01:28;24.38;;;17.58;;
55672;SDS011;41554;45.366;20.400;2022-11-12T13:03:59;30.63;;;20.73;;
55672;SDS011;41554;45.366;20.400;2022-11-12T13:06:38;29.02;;;20.15;;
55672;SDS011;41554;45.366;20.400;2022-11-12T13:09:06;28.75;;;19.25;;
55672;SDS011;41554;45.366;20.400;2022-11-12T13:11:46;27.60;;;20.20;;
55672;SDS011;41554;45.366;20.400;2022-11-12T13:17:03;28.67;;;16.40;;
55672;SDS011;41554;45.366;20.400;2022-11-12T13:20:14;17.38;;;12.52;;
55672;SDS011;41554;45.366;20.400;2022-11-12T13:30:09;23.90;;;14.32;;
55672;SDS011;41554;45.366;20.400;2022-11-12T13:32:55;22.70;;;14.98;;
55672;SDS011;41554;45.366;20.400;2022-11-12T13:35:27;26.52;;;12.95;;
55672;SDS011;41554;45.366;20.400;2022-11-12T13:37:56;19.23;;;13.40;;
55672;SDS011;41554;45.366;20.400;2022-11-12T13:45:38;16.35;;;12.57;;
55672;SDS011;41554;45.366;20.400;2022-11-12T13:48:06;19.45;;;13.55;;
55672;SDS011;41554;45.366;20.400;2022-11-12T13:50:33;25.15;;;16.02;;
55672;SDS011;41554;45.366;20.400;2022-11-12T13:52:59;29.88;;;18.75;;
55672;SDS011;41554;45.366;20.400;2022-11-12T13:55:25;25.63;;;16.45;;
55672;SDS011;41554;45.366;20.400;2022-11-12T13:57:52;17.85;;;12.43;;
55672;SDS011;41554;45.366;20.400;2022-11-12T14:05:25;23.05;;;12.88;;
55672;SDS011;41554;45.366;20.400;2022-11-12T14:12:59;21.70;;;15.77;;
55672;SDS011;41554;45.366;20.400;2022-11-12T14:20:56;22.85;;;15.38;;
55672;SDS011;41554;45.366;20.400;2022-11-12T14:23:22;23.77;;;15.27;;
55672;SDS011;41554;45.366;20.400;2022-11-12T14:25:50;20.25;;;14.73;;
55672;SDS011;41554;45.366;20.400;2022-11-12T14:28:23;24.42;;;14.93;;
55672;SDS011;41554;45.366;20.400;2022-11-12T14:30:49;20.27;;;14.73;;
55672;SDS011;41554;45.366;20.400;2022-11-12T14:33:16;17.20;;;10.85;;
55672;SDS011;41554;45.366;20.400;2022-11-12T14:35:43;22.50;;;11.68;;
55672;SDS011;41554;45.366;20.400;2022-11-12T14:46:00;11.90;;;8.13;;
55672;SDS011;41554;45.366;20.400;2022-11-12T14:48:27;17.05;;;10.25;;
55672;SDS011;41554;45.366;20.400;2022-11-12T14:50:55;18.15;;;8.63;;
55672;SDS011;41554;45.366;20.400;2022-11-12T14:53:26;10.82;;;9.68;;
55672;SDS011;41554;45.366;20.400;2022-11-12T14:55:55;14.68;;;9.65;;
55672;SDS011;41554;45.366;20.400;2022-11-12T14:58:21;17.13;;;10.38;;
55672;SDS011;41554;45.366;20.400;2022-11-12T15:00:49;21.42;;;11.35;;
55672;SDS011;41554;45.366;20.400;2022-11-12T15:03:20;18.65;;;10.85;;
55672;SDS011;41554;45.366;20.400;2022-11-12T15:05:57;13.52;;;10.05;;
55672;SDS011;41554;45.366;20.400;2022-11-12T15:08:34;14.05;;;9.68;;
55672;SDS011;41554;45.366;20.400;2022-11-12T15:11:24;14.93;;;10.27;;
55672;SDS011;41554;45.366;20.400;2022-11-12T15:13:48;11.85;;;9.60;;
55672;SDS011;41554;45.366;20.400;2022-11-12T15:16:17;30.15;;;12.80;;
55672;SDS011;41554;45.366;20.400;2022-11-12T15:18:43;16.02;;;10.88;;
55672;SDS011;41554;45.366;20.400;2022-11-12T15:21:14;17.58;;;10.80;;
55672;SDS011;41554;45.366;20.400;2022-11-12T15:23:46;13.60;;;10.68;;
55672;SDS011;41554;45.366;20.400;2022-11-12T15:26:21;16.30;;;11.00;;
55672;SDS011;41554;45.366;20.400;2022-11-12T15:34:19;15.63;;;11.10;;
55672;SDS011;41554;45.366;20.400;2022-11-12T15:36:49;21.80;;;13.10;;
55672;SDS011;41554;45.366;20.400;2022-11-12T15:39:15;30.75;;;13.80;;
55672;SDS011;41554;45.366;20.400;2022-11-12T15:41:41;18.42;;;11.73;;
55672;SDS011;41554;45.366;20.400;2022-11-12T15:44:08;23.52;;;13.60;;
55672;SDS011;41554;45.366;20.400;2022-11-12T15:46:35;20.70;;;12.50;;
55672;SDS011;41554;45.366;20.400;2022-11-12T15:49:01;40.97;;;14.25;;
55672;SDS011;41554;45.366;20.400;2022-11-12T15:51:27;32.67;;;15.52;;
55672;SDS011;41554;45.366;20.400;2022-11-12T15:53:53;30.02;;;17.35;;
55672;SDS011;41554;45.366;20.400;2022-11-12T15:56:20;36.55;;;21.63;;
55672;SDS011;41554;45.366;20.400;2022-11-12T15:58:46;41.95;;;21.70;;
55672;SDS011;41554;45.366;20.400;2022-11-12T16:01:12;31.90;;;21.25;;
55672;SDS011;41554;45.366;20.400;2022-11-12T16:03:38;33.50;;;18.88;;
55672;SDS011;41554;45.366;20.400;2022-11-12T16:06:04;30.00;;;17.10;;
55672;SDS011;41554;45.366;20.400;2022-11-12T16:08:31;34.08;;;20.00;;
55672;SDS011;41554;45.366;20.400;2022-11-12T16:10:57;35.22;;;19.80;;
55672;SDS011;41554;45.366;20.400;2022-11-12T16:13:25;32.58;;;17.00;;
55672;SDS011;41554;45.366;20.400;2022-11-12T16:15:54;30.05;;;19.08;;